Time;durP1;ratioP1;P1;durP2;ratioP2;P2;SDS_P1;SDS_P2;PMS_P1;PMS_P2;Temp;Humidity;BMP_temperature;BMP_pressure;BME280_temperature;BME280_humidity;BME280_pressure;Samples;Min_cycle;Max_cycle;Signal;HPM_P1;HPM_P2
2021/09/01 00:01:32;;;;;;;;;;;24.60;39.90;;;;;;4368242;32;20054;-38
2021/09/01 00:03:58;;;;;;;;;;;24.60;39.60;;;;;;4375516;32;20000;-38
2021/09/01 00:06:24;;;;;;;;;;;24.50;39.00;;;;;;4375354;32;19953;-37
2021/09/01 00:08:51;;;;;;;;;;;24.50;38.40;;;;;;4375140;32;20358;-38
2021/09/01 00:11:20;;;;;;;;;;;24.50;38.10;;;;;;4374980;32;20373;-37
2021/09/01 00:13:47;;;;;;;;;;;24.50;37.50;;;;;;4375045;32;20058;-37
2021/09/01 00:16:29;;;;;;;;;;;24.50;37.20;;;;;;4375439;32;19969;-38
2021/09/01 00:18:57;;;;;;;;;;;24.50;36.80;;;;;;4374858;32;19965;-38
2021/09/01 00:21:23;;;;;;;;;;;24.50;36.30;;;;;;4375041;32;20063;-38
2021/09/01 00:23:49;;;;;;;;;;;24.50;35.60;;;;;;4375100;32;19988;-38
2021/09/01 00:26:16;;;;;;;;;;;24.60;35.10;;;;;;4361187;32;19965;-38
2021/09/01 00:28:42;;;;;;;;;;;24.60;34.80;;;;;;4374739;32;19991;-38
2021/09/01 00:31:09;;;;;;;;;;;24.60;34.50;;;;;;4375192;32;19984;-37
2021/09/01 00:33:35;;;;;;;;;;;24.60;34.30;;;;;;4374774;32;19983;-37
2021/09/01 00:36:01;;;;;;;;;;;24.60;34.30;;;;;;4374764;32;19956;-38
2021/09/01 00:38:27;;;;;;;;;;;24.60;34.10;;;;;;4374935;32;19993;-37
2021/09/01 00:40:54;;;;;;;;;;;24.60;34.30;;;;;;4374772;32;20001;-37
2021/09/01 00:43:21;;;;;;;;;;;24.70;34.40;;;;;;4363789;32;20049;-38
2021/09/01 00:45:48;;;;;;;;;;;24.70;34.40;;;;;;4359687;32;20373;-38
2021/09/01 00:48:20;;;;;;;;;;;24.70;34.40;;;;;;4359525;32;19982;-38
2021/09/01 00:50:50;;;;;;;;;;;24.70;34.40;;;;;;4358305;32;19958;-37
2021/09/01 00:53:16;;;;;;;;;;;24.80;34.40;;;;;;4357739;32;19958;-37
2021/09/01 00:55:46;;;;;;;;;;;24.80;34.40;;;;;;4358116;32;19973;-38
2021/09/01 00:58:14;;;;;;;;;;;24.80;34.40;;;;;;4359513;32;19965;-38
2021/09/01 01:03:16;;;;;;;;;;;24.90;34.30;;;;;;4359735;32;19961;-38
2021/09/01 01:05:43;;;;;;;;;;;24.90;34.10;;;;;;4357770;32;20507;-38
2021/09/01 01:08:11;;;;;;;;;;;25.00;34.70;;;;;;4358221;32;20042;-38
2021/09/01 01:10:38;;;;;;;;;;;25.00;33.80;;;;;;4359482;32;19966;-38
2021/09/01 01:13:06;;;;;;;;;;;25.10;33.80;;;;;;4359750;32;20441;-38
2021/09/01 01:15:32;;;;;;;;;;;25.10;33.50;;;;;;4359317;32;19964;-38
2021/09/01 01:17:58;;;;;;;;;;;25.10;33.30;;;;;;4359375;32;19954;-38
2021/09/01 01:20:24;;;;;;;;;;;25.10;33.10;;;;;;4359517;32;19965;-38
2021/09/01 01:22:51;;;;;;;;;;;25.20;33.00;;;;;;4371311;32;20387;-38
2021/09/01 01:25:39;;;;;;;;;;;25.10;32.80;;;;;;4374430;32;19960;-37
2021/09/01 01:28:09;;;;;;;;;;;25.10;32.50;;;;;;4374647;32;19954;-38
2021/09/01 01:30:35;;;;;;;;;;;25.10;32.40;;;;;;4329635;33;19970;-37
2021/09/01 01:33:02;;;;;;;;;;;25.10;32.10;;;;;;4329912;33;19970;-39
2021/09/01 01:35:35;;;;;;;;;;;25.10;32.00;;;;;;4329333;33;19966;-38
2021/09/01 01:38:06;;;;;;;;;;;25.10;31.80;;;;;;4342019;33;20442;-37
2021/09/01 01:40:33;;;;;;;;;;;25.10;31.70;;;;;;4329292;33;19966;-38
2021/09/01 01:42:59;;;;;;;;;;;25.00;31.60;;;;;;4341416;33;20424;-39
2021/09/01 01:45:34;;;;;;;;;;;25.00;31.60;;;;;;4329113;33;20021;-38
2021/09/01 01:48:01;;;;;;;;;;;25.00;31.60;;;;;;4341616;33;20075;-38
2021/09/01 01:50:27;;;;;;;;;;;25.00;31.50;;;;;;4329038;33;20560;-38
2021/09/01 01:52:54;;;;;;;;;;;24.90;31.10;;;;;;4341341;33;19982;-38
2021/09/01 01:55:20;;;;;;;;;;;25.00;31.00;;;;;;4329225;33;19985;-38
2021/09/01 01:57:46;;;;;;;;;;;25.00;31.00;;;;;;4341549;33;20052;-37
2021/09/01 02:00:13;;;;;;;;;;;25.00;30.90;;;;;;4341347;33;19961;-37
2021/09/01 02:02:40;;;;;;;;;;;25.00;31.30;;;;;;4358141;32;19989;-38
2021/09/01 02:05:06;;;;;;;;;;;25.10;30.40;;;;;;4359177;32;19969;-37
2021/09/01 02:07:32;;;;;;;;;;;25.10;30.40;;;;;;4358777;32;20050;-38
2021/09/01 02:09:59;;;;;;;;;;;25.20;30.40;;;;;;4358755;32;20009;-38
2021/09/01 02:12:31;;;;;;;;;;;25.20;30.40;;;;;;4344831;32;19953;-38
2021/09/01 02:14:58;;;;;;;;;;;25.30;30.00;;;;;;4344442;32;20414;-38
2021/09/01 02:17:24;;;;;;;;;;;25.30;29.90;;;;;;4358427;32;19954;-38
2021/09/01 02:19:51;;;;;;;;;;;25.40;29.90;;;;;;4358397;32;19974;-37
2021/09/01 02:22:18;;;;;;;;;;;25.40;29.90;;;;;;4358399;32;20403;-37
2021/09/01 02:24:44;;;;;;;;;;;25.50;30.00;;;;;;4358292;32;20378;-39
2021/09/01 02:27:10;;;;;;;;;;;25.60;30.00;;;;;;4344518;32;20603;-38
2021/09/01 02:29:37;;;;;;;;;;;25.60;29.90;;;;;;4344801;32;20048;-38
2021/09/01 02:32:04;;;;;;;;;;;25.70;30.00;;;;;;4358144;32;19992;-37
2021/09/01 02:34:30;;;;;;;;;;;25.70;30.00;;;;;;4358265;32;19996;-37
2021/09/01 02:36:56;;;;;;;;;;;25.80;30.10;;;;;;4344567;32;19980;-37
2021/09/01 02:39:23;;;;;;;;;;;25.90;30.10;;;;;;4358061;32;19980;-39
2021/09/01 02:41:49;;;;;;;;;;;26.00;30.00;;;;;;4357584;32;20409;-38
2021/09/01 02:44:15;;;;;;;;;;;26.00;30.00;;;;;;4358077;32;20418;-37
2021/09/01 02:46:42;;;;;;;;;;;26.10;29.90;;;;;;4357817;32;20338;-37
2021/09/01 02:49:08;;;;;;;;;;;26.20;29.90;;;;;;4358438;32;20050;-37
2021/09/01 02:51:34;;;;;;;;;;;26.30;29.90;;;;;;4358019;32;19968;-38
2021/09/01 02:54:00;;;;;;;;;;;26.60;30.00;;;;;;4358149;32;20509;-39
2021/09/01 02:56:27;;;;;;;;;;;26.80;30.00;;;;;;4356252;32;20398;-37
2021/09/01 02:58:53;;;;;;;;;;;27.00;30.00;;;;;;4356359;32;19954;-37
2021/09/01 03:01:19;;;;;;;;;;;27.20;29.80;;;;;;4358480;32;19969;-37
2021/09/01 03:03:45;;;;;;;;;;;27.30;29.70;;;;;;4358359;32;19962;-38
2021/09/01 03:06:11;;;;;;;;;;;27.50;29.80;;;;;;4358453;32;19984;-38
2021/09/01 03:08:38;;;;;;;;;;;27.70;29.80;;;;;;4358832;32;19961;-38
2021/09/01 03:11:05;;;;;;;;;;;28.00;30.00;;;;;;4358296;32;20441;-38
2021/09/01 03:13:32;;;;;;;;;;;28.20;29.90;;;;;;4358052;32;19987;-38
2021/09/01 03:15:58;;;;;;;;;;;28.60;29.40;;;;;;4357903;32;19962;-37
2021/09/01 03:18:24;;;;;;;;;;;28.90;29.40;;;;;;4357616;32;20365;-38
2021/09/01 03:20:50;;;;;;;;;;;29.20;28.80;;;;;;4358269;32;19992;-38
2021/09/01 03:23:17;;;;;;;;;;;29.60;28.10;;;;;;4343025;32;19973;-38
2021/09/01 03:25:43;;;;;;;;;;;29.90;28.10;;;;;;4341897;33;19967;-39
2021/09/01 03:28:10;;;;;;;;;;;30.20;27.80;;;;;;4343565;32;19966;-37
2021/09/01 03:30:36;;;;;;;;;;;30.40;26.90;;;;;;4342955;32;20377;-38
2021/09/01 03:33:02;;;;;;;;;;;30.60;26.30;;;;;;4343308;32;19978;-38
2021/09/01 03:35:28;;;;;;;;;;;30.80;25.40;;;;;;4342989;32;19958;-38
2021/09/01 03:37:55;;;;;;;;;;;31.00;24.90;;;;;;4343261;32;19993;-38
2021/09/01 03:40:21;;;;;;;;;;;31.10;24.30;;;;;;4342811;32;19954;-38
2021/09/01 03:42:47;;;;;;;;;;;31.30;24.00;;;;;;4350180;32;20078;-39
2021/09/01 03:45:13;;;;;;;;;;;31.40;23.90;;;;;;4358302;32;19977;-39
2021/09/01 03:47:40;;;;;;;;;;;31.50;23.80;;;;;;4358580;32;19958;-39
2021/09/01 03:50:08;;;;;;;;;;;31.60;23.70;;;;;;4358157;32;19953;-39
2021/09/01 03:52:34;;;;;;;;;;;31.70;23.60;;;;;;4357959;32;20013;-38
2021/09/01 03:55:03;;;;;;;;;;;31.80;23.50;;;;;;4357737;32;20722;-38
2021/09/01 03:57:29;;;;;;;;;;;31.90;23.10;;;;;;4357682;32;20406;-37
2021/09/01 03:59:55;;;;;;;;;;;32.00;22.90;;;;;;4357983;32;19956;-37
2021/09/01 04:02:21;;;;;;;;;;;32.10;22.80;;;;;;4357729;32;20523;-38
2021/09/01 04:04:48;;;;;;;;;;;32.30;22.70;;;;;;4360208;32;19954;-38
2021/09/01 04:07:14;;;;;;;;;;;32.60;22.60;;;;;;4360603;32;19961;-37
2021/09/01 04:09:40;;;;;;;;;;;32.80;22.60;;;;;;4360537;32;19946;-38
2021/09/01 04:12:06;;;;;;;;;;;33.10;22.50;;;;;;4360484;32;19969;-39
2021/09/01 04:14:32;;;;;;;;;;;33.30;22.60;;;;;;4359934;32;20005;-37
2021/09/01 04:16:59;;;;;;;;;;;33.60;22.30;;;;;;4360125;32;19954;-39
2021/09/01 04:19:25;;;;;;;;;;;33.90;22.10;;;;;;4359897;32;20367;-38
2021/09/01 04:21:51;;;;;;;;;;;34.20;22.20;;;;;;4359952;32;20355;-38
2021/09/01 04:24:17;;;;;;;;;;;34.40;22.10;;;;;;4360067;32;19991;-38
2021/09/01 04:26:43;;;;;;;;;;;34.70;22.20;;;;;;4346206;32;19962;-38
2021/09/01 04:29:10;;;;;;;;;;;34.80;21.90;;;;;;4359735;32;19957;-38
2021/09/01 04:31:36;;;;;;;;;;;34.80;21.70;;;;;;4359922;32;19967;-38
2021/09/01 04:34:03;;;;;;;;;;;34.80;21.90;;;;;;4360192;32;19966;-38
2021/09/01 04:36:29;;;;;;;;;;;34.80;22.10;;;;;;4359849;32;20469;-39
2021/09/01 04:38:55;;;;;;;;;;;34.80;22.10;;;;;;4360104;32;20037;-38
2021/09/01 04:41:21;;;;;;;;;;;35.00;21.70;;;;;;4360080;32;19974;-37
2021/09/01 04:43:47;;;;;;;;;;;35.20;21.40;;;;;;4373575;32;19976;-38
2021/09/01 04:46:14;;;;;;;;;;;35.40;21.20;;;;;;4375176;32;19969;-38
2021/09/01 04:48:40;;;;;;;;;;;35.50;21.00;;;;;;4374720;32;20385;-38
2021/09/01 04:51:06;;;;;;;;;;;35.70;20.90;;;;;;4374576;32;19973;-38
2021/09/01 04:53:32;;;;;;;;;;;35.90;20.90;;;;;;4360623;32;20410;-38
2021/09/01 04:55:58;;;;;;;;;;;36.00;20.80;;;;;;4374473;32;20101;-38
2021/09/01 04:58:24;;;;;;;;;;;36.00;20.90;;;;;;4374365;32;19991;-38
2021/09/01 05:00:51;;;;;;;;;;;36.10;21.00;;;;;;4374836;32;19976;-38
2021/09/01 05:03:17;;;;;;;;;;;36.10;21.20;;;;;;4374595;32;20517;-39
2021/09/01 05:05:43;;;;;;;;;;;36.20;21.30;;;;;;4374339;32;19953;-39
2021/09/01 05:08:09;;;;;;;;;;;36.40;21.50;;;;;;4374429;32;20004;-38
2021/09/01 05:10:36;;;;;;;;;;;36.60;21.40;;;;;;4360063;32;20373;-39
2021/09/01 05:13:02;;;;;;;;;;;36.70;21.10;;;;;;4374087;32;19970;-39
2021/09/01 05:15:28;;;;;;;;;;;37.00;21.00;;;;;;4373520;32;19964;-39
2021/09/01 05:17:54;;;;;;;;;;;37.20;21.00;;;;;;4374185;32;19953;-39
2021/09/01 05:20:21;;;;;;;;;;;37.30;20.90;;;;;;4374144;32;19984;-39
2021/09/01 05:22:48;;;;;;;;;;;37.40;20.70;;;;;;4374356;32;19960;-38
2021/09/01 05:25:16;;;;;;;;;;;37.50;20.60;;;;;;4360397;32;19967;-38
2021/09/01 05:27:43;;;;;;;;;;;37.80;20.40;;;;;;4374400;32;20064;-38
2021/09/01 05:30:11;;;;;;;;;;;38.10;20.00;;;;;;4360289;32;19980;-38
2021/09/01 05:32:38;;;;;;;;;;;38.30;19.90;;;;;;4374314;32;19973;-37
2021/09/01 05:35:05;;;;;;;;;;;38.60;20.00;;;;;;4373914;32;20390;-38
2021/09/01 05:37:32;;;;;;;;;;;38.80;20.30;;;;;;4373981;32;20036;-38
2021/09/01 05:39:59;;;;;;;;;;;38.90;20.60;;;;;;4374110;32;19965;-37
2021/09/01 05:42:26;;;;;;;;;;;39.00;20.70;;;;;;4368752;32;19957;-38
2021/09/01 05:44:52;;;;;;;;;;;39.20;20.60;;;;;;4359233;32;19966;-39
2021/09/01 05:47:19;;;;;;;;;;;39.40;20.10;;;;;;4359417;32;19961;-39
2021/09/01 05:49:46;;;;;;;;;;;39.60;20.00;;;;;;4359273;32;19958;-38
2021/09/01 05:52:13;;;;;;;;;;;39.90;20.00;;;;;;4358632;32;20397;-39
2021/09/01 05:54:44;;;;;;;;;;;40.10;20.20;;;;;;4358769;32;19962;-39
2021/09/01 05:57:37;;;;;;;;;;;40.30;20.40;;;;;;4359046;32;20449;-39
2021/09/01 06:00:11;;;;;;;;;;;40.50;20.10;;;;;;4355121;32;19974;-39
2021/09/01 06:02:43;;;;;;;;;;;40.70;20.00;;;;;;4358888;32;19966;-39
2021/09/01 06:05:10;;;;;;;;;;;40.80;20.30;;;;;;4358771;32;20389;-37
2021/09/01 06:07:46;;;;;;;;;;;40.90;20.50;;;;;;4357018;32;19961;-39
2021/09/01 06:10:13;;;;;;;;;;;41.00;20.70;;;;;;4358886;32;19986;-39
2021/09/01 06:12:39;;;;;;;;;;;41.10;20.50;;;;;;4357066;32;19992;-38
2021/09/01 06:15:06;;;;;;;;;;;41.10;20.70;;;;;;4357246;32;19988;-38
2021/09/01 06:17:32;;;;;;;;;;;41.20;20.50;;;;;;4358294;32;20422;-40
2021/09/01 06:19:58;;;;;;;;;;;41.30;20.70;;;;;;4358671;32;19970;-39
2021/09/01 06:22:24;;;;;;;;;;;41.30;20.70;;;;;;4367647;32;19961;-40
2021/09/01 06:24:51;;;;;;;;;;;41.40;20.60;;;;;;4373629;32;19961;-39
2021/09/01 06:27:17;;;;;;;;;;;41.50;20.40;;;;;;4373485;32;19969;-39
2021/09/01 06:29:43;;;;;;;;;;;41.60;20.30;;;;;;4373262;32;20008;-38
2021/09/01 06:32:10;;;;;;;;;;;41.70;20.60;;;;;;4373771;32;19953;-39
2021/09/01 06:34:36;;;;;;;;;;;41.70;20.60;;;;;;4373509;32;20045;-40
2021/09/01 06:37:02;;;;;;;;;;;41.90;20.70;;;;;;4372958;32;20033;-39
2021/09/01 06:39:28;;;;;;;;;;;41.90;20.70;;;;;;4373249;32;19958;-38
2021/09/01 06:41:55;;;;;;;;;;;41.90;20.60;;;;;;4370905;32;19954;-39
2021/09/01 06:44:21;;;;;;;;;;;41.80;20.20;;;;;;4358047;32;19950;-39
2021/09/01 06:46:47;;;;;;;;;;;41.80;20.20;;;;;;4358600;32;19961;-39
2021/09/01 06:49:13;;;;;;;;;;;41.60;20.10;;;;;;4358059;32;20033;-39
2021/09/01 06:51:40;;;;;;;;;;;41.50;20.20;;;;;;4358232;32;19965;-39
2021/09/01 06:54:06;;;;;;;;;;;41.40;20.20;;;;;;4357812;32;19962;-38
2021/09/01 06:56:32;;;;;;;;;;;41.30;20.10;;;;;;4358180;32;20000;-38
2021/09/01 06:58:58;;;;;;;;;;;41.20;20.00;;;;;;4358153;32;19958;-37
2021/09/01 07:01:25;;;;;;;;;;;41.10;20.00;;;;;;4358350;32;19970;-39
2021/09/01 07:03:54;;;;;;;;;;;41.00;20.00;;;;;;4358413;32;20049;-38
2021/09/01 07:06:23;;;;;;;;;;;41.00;20.10;;;;;;4358130;32;19960;-39
2021/09/01 07:08:50;;;;;;;;;;;40.90;20.00;;;;;;4344301;32;19991;-38
2021/09/01 07:11:16;;;;;;;;;;;40.80;20.20;;;;;;4358210;32;20054;-39
2021/09/01 07:13:45;;;;;;;;;;;40.70;20.30;;;;;;4344354;32;19973;-40
2021/09/01 07:16:14;;;;;;;;;;;40.60;20.50;;;;;;4358359;32;20052;-38
2021/09/01 07:18:40;;;;;;;;;;;40.60;20.80;;;;;;4357990;32;19964;-39
2021/09/01 07:21:07;;;;;;;;;;;40.60;20.90;;;;;;4357784;32;20354;-40
2021/09/01 07:23:33;;;;;;;;;;;40.70;21.00;;;;;;4344129;32;19953;-39
2021/09/01 07:25:59;;;;;;;;;;;40.80;21.00;;;;;;4358098;32;20051;-38
2021/09/01 07:28:25;;;;;;;;;;;40.90;20.80;;;;;;4357966;32;19956;-38
2021/09/01 07:30:52;;;;;;;;;;;41.00;20.70;;;;;;4357928;32;20503;-39
2021/09/01 07:33:18;;;;;;;;;;;41.10;20.40;;;;;;4357827;32;19973;-45
2021/09/01 07:35:46;;;;;;;;;;;41.20;20.10;;;;;;4344202;32;19997;-39
2021/09/01 07:38:12;;;;;;;;;;;41.30;19.80;;;;;;4358851;32;19962;-38
2021/09/01 07:40:39;;;;;;;;;;;41.50;19.70;;;;;;4360770;32;19958;-38
2021/09/01 07:43:05;;;;;;;;;;;41.70;19.60;;;;;;4370254;32;19962;-39
2021/09/01 07:45:31;;;;;;;;;;;41.90;19.60;;;;;;4375305;32;20376;-39
2021/09/01 07:47:58;;;;;;;;;;;42.10;19.60;;;;;;4375702;32;20510;-39
2021/09/01 07:50:26;;;;;;;;;;;42.30;19.80;;;;;;4375710;32;19988;-38
2021/09/01 07:52:52;;;;;;;;;;;42.30;20.00;;;;;;4375420;32;19988;-39
2021/09/01 07:55:18;;;;;;;;;;;42.50;19.70;;;;;;4342639;32;20079;-37
2021/09/01 07:57:45;;;;;;;;;;;42.70;19.60;;;;;;4343592;32;19954;-38
2021/09/01 08:00:11;;;;;;;;;;;42.80;19.00;;;;;;4343154;33;19985;-39
2021/09/01 08:02:38;;;;;;;;;;;43.00;18.80;;;;;;4342810;32;19977;-38
2021/09/01 08:05:05;;;;;;;;;;;43.10;18.60;;;;;;4343281;33;19972;-38
2021/09/01 08:07:31;;;;;;;;;;;43.20;18.30;;;;;;4343198;33;20033;-39
2021/09/01 08:09:57;;;;;;;;;;;43.20;18.40;;;;;;4343199;32;20038;-39
2021/09/01 08:12:24;;;;;;;;;;;43.40;18.80;;;;;;4342956;32;19970;-38
2021/09/01 08:14:50;;;;;;;;;;;43.40;19.10;;;;;;4342884;32;20057;-39
2021/09/01 08:17:17;;;;;;;;;;;43.30;19.40;;;;;;4342810;32;19993;-38
2021/09/01 08:19:44;;;;;;;;;;;43.20;19.70;;;;;;4342655;33;20040;-39
2021/09/01 08:22:11;;;;;;;;;;;42.90;19.50;;;;;;4342735;32;19955;-38
2021/09/01 08:24:38;;;;;;;;;;;42.70;19.20;;;;;;4342565;32;19982;-39
2021/09/01 08:27:05;;;;;;;;;;;42.60;18.90;;;;;;4343053;33;19962;-40
2021/09/01 08:29:32;;;;;;;;;;;42.60;18.90;;;;;;4343110;33;19976;-39
2021/09/01 08:31:58;;;;;;;;;;;42.60;18.60;;;;;;4348458;32;19965;-40
2021/09/01 08:34:24;;;;;;;;;;;42.60;18.40;;;;;;4375125;32;19993;-39
2021/09/01 08:36:51;;;;;;;;;;;42.60;18.20;;;;;;4360944;32;20430;-39
2021/09/01 08:39:17;;;;;;;;;;;42.70;18.20;;;;;;4375353;32;20406;-39
2021/09/01 08:41:43;;;;;;;;;;;42.70;18.20;;;;;;4373611;32;20030;-38
2021/09/01 08:44:11;;;;;;;;;;;42.80;18.30;;;;;;4360135;32;20108;-39
2021/09/01 08:46:38;;;;;;;;;;;42.80;18.60;;;;;;4359583;32;19961;-38
2021/09/01 08:49:04;;;;;;;;;;;42.90;18.70;;;;;;4345627;32;20516;-39
2021/09/01 08:51:30;;;;;;;;;;;42.90;18.80;;;;;;4360472;32;20029;-38
2021/09/01 08:53:57;;;;;;;;;;;42.70;18.90;;;;;;4346281;32;20047;-38
2021/09/01 08:56:24;;;;;;;;;;;42.50;19.00;;;;;;4359907;32;20033;-38
2021/09/01 08:58:50;;;;;;;;;;;42.40;19.20;;;;;;4359772;32;19966;-38
2021/09/01 09:01:43;;;;;;;;;;;42.30;19.30;;;;;;4359888;32;19958;-39
2021/09/01 09:04:41;;;;;;;;;;;42.40;19.30;;;;;;4359764;32;19965;-38
2021/09/01 09:07:08;;;;;;;;;;;42.50;19.10;;;;;;4313213;33;20418;-39
2021/09/01 09:09:41;;;;;;;;;;;42.40;18.60;;;;;;4312724;33;20461;-40
2021/09/01 09:12:09;;;;;;;;;;;42.20;18.80;;;;;;4301262;33;19961;-39
2021/09/01 09:14:37;;;;;;;;;;;42.00;18.90;;;;;;4312739;33;19955;-39
2021/09/01 09:17:16;;;;;;;;;;;41.90;19.20;;;;;;4312332;33;20137;-39
2021/09/01 09:19:45;;;;;;;;;;;41.80;19.50;;;;;;4312985;33;20015;-39
2021/09/01 09:22:14;;;;;;;;;;;41.70;19.80;;;;;;4312450;33;19974;-41
2021/09/01 09:24:40;;;;;;;;;;;41.50;19.60;;;;;;4313410;33;19962;-40
2021/09/01 09:27:07;;;;;;;;;;;41.20;19.50;;;;;;4312558;33;19966;-40
2021/09/01 09:29:33;;;;;;;;;;;41.00;19.70;;;;;;4313056;33;19962;-39
2021/09/01 09:32:02;;;;;;;;;;;40.80;20.30;;;;;;4312702;33;20487;-39
2021/09/01 09:34:35;;;;;;;;;;;40.60;20.60;;;;;;4312527;33;19971;-38
2021/09/01 09:37:01;;;;;;;;;;;40.40;20.30;;;;;;4312975;33;19982;-38
2021/09/01 09:39:41;;;;;;;;;;;40.20;19.90;;;;;;4312416;33;20139;-38
2021/09/01 09:42:11;;;;;;;;;;;39.90;19.80;;;;;;4327578;32;20025;-38
2021/09/01 09:44:38;;;;;;;;;;;39.60;19.50;;;;;;4374243;32;20615;-38
2021/09/01 09:47:04;;;;;;;;;;;39.30;19.20;;;;;;4374166;32;20021;-38
2021/09/01 09:49:32;;;;;;;;;;;39.10;19.40;;;;;;4374081;32;20025;-39
2021/09/01 09:51:58;;;;;;;;;;;39.00;19.50;;;;;;4341151;33;19962;-39
2021/09/01 09:54:26;;;;;;;;;;;38.80;19.90;;;;;;4329245;33;20020;-39
2021/09/01 09:57:05;;;;;;;;;;;38.80;20.10;;;;;;4341286;33;20038;-40
2021/09/01 09:59:32;;;;;;;;;;;38.70;20.40;;;;;;4341887;33;19962;-40
2021/09/01 10:01:58;;;;;;;;;;;38.60;20.60;;;;;;4341048;32;19961;-39
2021/09/01 10:04:26;;;;;;;;;;;38.50;20.50;;;;;;4341252;33;19966;-40
2021/09/01 10:06:53;;;;;;;;;;;38.40;20.30;;;;;;4341408;33;20464;-39
2021/09/01 10:09:19;;;;;;;;;;;38.30;20.00;;;;;;4341389;33;20061;-38
2021/09/01 10:11:46;;;;;;;;;;;38.20;19.50;;;;;;4328964;33;20092;-39
2021/09/01 10:14:24;;;;;;;;;;;38.00;19.50;;;;;;4341386;33;19981;-39
2021/09/01 10:17:08;;;;;;;;;;;37.90;19.60;;;;;;4329730;33;20156;-39
2021/09/01 10:19:35;;;;;;;;;;;37.90;19.70;;;;;;4328933;33;20458;-39
2021/09/01 10:22:03;;;;;;;;;;;37.90;19.90;;;;;;4341211;33;19974;-39
2021/09/01 10:24:37;;;;;;;;;;;37.80;20.00;;;;;;4328984;33;20493;-37
2021/09/01 10:27:09;;;;;;;;;;;37.80;20.60;;;;;;4341460;33;20037;-38
2021/09/01 10:30:18;;;;;;;;;;;37.80;21.00;;;;;;4359826;32;19958;-38
2021/09/01 10:32:45;;;;;;;;;;;37.70;21.10;;;;;;4371329;32;19989;-40
2021/09/01 10:37:39;;;;;;;;;;;37.60;21.20;;;;;;4373167;32;20025;-38
2021/09/01 10:40:10;;;;;;;;;;;37.50;21.50;;;;;;4373146;32;20418;-38
2021/09/01 10:42:43;;;;;;;;;;;37.40;22.00;;;;;;4366972;32;20026;-38
2021/09/01 10:45:20;;;;;;;;;;;37.20;22.10;;;;;;4344259;32;20036;-39
2021/09/01 10:47:50;;;;;;;;;;;37.10;21.60;;;;;;4358210;32;20487;-39
2021/09/01 10:50:25;;;;;;;;;;;37.00;21.50;;;;;;4358436;32;19954;-39
2021/09/01 10:52:59;;;;;;;;;;;37.00;21.40;;;;;;4358163;32;20115;-39
2021/09/01 10:55:25;;;;;;;;;;;37.00;21.40;;;;;;4357977;32;20069;-38
2021/09/01 10:58:14;;;;;;;;;;;36.90;21.50;;;;;;4358053;32;20030;-39
2021/09/01 11:00:41;;;;;;;;;;;36.90;21.30;;;;;;4358341;32;19954;-39
2021/09/01 11:03:07;;;;;;;;;;;36.90;21.10;;;;;;4358671;32;20001;-38
2021/09/01 11:05:33;;;;;;;;;;;37.00;20.90;;;;;;4358509;32;20410;-39
2021/09/01 11:08:00;;;;;;;;;;;37.10;21.10;;;;;;4344287;32;20054;-40
2021/09/01 11:10:27;;;;;;;;;;;37.20;21.10;;;;;;4357810;32;20545;-39
2021/09/01 11:12:58;;;;;;;;;;;37.30;21.00;;;;;;4358507;32;19962;-39
2021/09/01 11:15:25;;;;;;;;;;;37.50;20.80;;;;;;4360989;32;19989;-38
2021/09/01 11:17:52;;;;;;;;;;;37.60;20.50;;;;;;4328477;33;19974;-40
2021/09/01 11:20:20;;;;;;;;;;;37.50;20.40;;;;;;4316572;33;20119;-39
2021/09/01 11:22:46;;;;;;;;;;;37.50;20.70;;;;;;4328713;33;20371;-39
2021/09/01 11:25:14;;;;;;;;;;;37.40;21.10;;;;;;4316681;33;20450;-38
2021/09/01 11:27:48;;;;;;;;;;;37.30;21.50;;;;;;4328932;33;19966;-40
2021/09/01 11:30:15;;;;;;;;;;;37.20;21.60;;;;;;4328651;33;20453;-40
2021/09/01 11:32:42;;;;;;;;;;;37.10;21.50;;;;;;4328550;33;19962;-40
2021/09/01 11:35:18;;;;;;;;;;;36.90;21.50;;;;;;4329112;33;20121;-39
2021/09/01 11:38:00;;;;;;;;;;;36.80;21.90;;;;;;4328775;33;20002;-39
2021/09/01 11:40:36;;;;;;;;;;;36.70;22.20;;;;;;4316542;33;20005;-39
2021/09/01 11:43:20;;;;;;;;;;;36.50;22.20;;;;;;4337975;33;19974;-39
2021/09/01 11:45:50;;;;;;;;;;;36.40;22.40;;;;;;4343643;33;19996;-39
2021/09/01 11:48:17;;;;;;;;;;;36.30;22.30;;;;;;4330842;33;19957;-38
2021/09/01 11:50:44;;;;;;;;;;;36.20;22.40;;;;;;4343565;33;19969;-38
2021/09/01 11:53:14;;;;;;;;;;;36.00;22.10;;;;;;4343332;33;19981;-39
2021/09/01 11:55:40;;;;;;;;;;;35.90;22.10;;;;;;4341670;32;20054;-39
2021/09/01 11:58:14;;;;;;;;;;;35.80;22.40;;;;;;4360524;32;19989;-40
2021/09/01 12:00:41;;;;;;;;;;;35.70;22.60;;;;;;4360366;32;19974;-40
2021/09/01 12:03:07;;;;;;;;;;;35.60;22.40;;;;;;4334759;32;20031;-39
2021/09/01 12:05:33;;;;;;;;;;;35.40;22.30;;;;;;4346488;32;20082;-39
2021/09/01 12:07:59;;;;;;;;;;;35.40;22.40;;;;;;4360397;32;19954;-39
2021/09/01 12:10:26;;;;;;;;;;;35.30;22.70;;;;;;4346687;32;19962;-40
2021/09/01 12:12:58;;;;;;;;;;;35.20;23.10;;;;;;4360430;32;19990;-39
2021/09/01 12:15:24;;;;;;;;;;;35.20;23.50;;;;;;4359776;32;19979;-39
2021/09/01 12:18:04;;;;;;;;;;;35.10;23.90;;;;;;4359791;32;20001;-39
2021/09/01 12:20:34;;;;;;;;;;;35.00;24.00;;;;;;4360209;32;19950;-39
2021/09/01 12:23:03;;;;;;;;;;;35.00;24.00;;;;;;4368444;32;19966;-39
2021/09/01 12:25:29;;;;;;;;;;;34.90;24.10;;;;;;4374679;32;19961;-39
2021/09/01 12:28:05;;;;;;;;;;;34.80;23.90;;;;;;4374957;32;20465;-38
2021/09/01 12:30:35;;;;;;;;;;;34.70;23.80;;;;;;4361286;32;20413;-39
2021/09/01 12:33:03;;;;;;;;;;;34.60;23.80;;;;;;4375228;32;19989;-38
2021/09/01 12:35:31;;;;;;;;;;;34.60;23.90;;;;;;4375104;32;19970;-38
2021/09/01 12:38:00;;;;;;;;;;;34.50;23.90;;;;;;4374958;32;19954;-40
2021/09/01 12:40:37;;;;;;;;;;;34.50;23.90;;;;;;4360962;32;20850;-38
2021/09/01 12:43:12;;;;;;;;;;;34.40;23.90;;;;;;4365498;32;19969;-39
2021/09/01 12:45:44;;;;;;;;;;;34.40;24.00;;;;;;4359488;32;20343;-39
2021/09/01 12:48:19;;;;;;;;;;;34.40;24.00;;;;;;4360042;32;20560;-39
2021/09/01 12:50:47;;;;;;;;;;;34.40;24.00;;;;;;4359486;32;19960;-40
2021/09/01 12:53:22;;;;;;;;;;;34.40;23.90;;;;;;4360078;32;19993;-39
2021/09/01 12:55:49;;;;;;;;;;;34.50;23.90;;;;;;4346772;32;19967;-39
2021/09/01 12:58:15;;;;;;;;;;;34.40;23.90;;;;;;4359647;32;19957;-39
2021/09/01 13:00:42;;;;;;;;;;;34.40;24.00;;;;;;4359520;32;19961;-39
2021/09/01 13:03:08;;;;;;;;;;;34.40;24.00;;;;;;4345692;32;19950;-39
2021/09/01 13:05:34;;;;;;;;;;;34.40;23.90;;;;;;4359461;32;20113;-39
2021/09/01 13:08:01;;;;;;;;;;;34.40;23.90;;;;;;4359590;32;20019;-39
2021/09/01 13:10:28;;;;;;;;;;;34.40;23.80;;;;;;4359232;32;20005;-39
2021/09/01 13:12:55;;;;;;;;;;;34.40;23.80;;;;;;4359180;32;20037;-39
2021/09/01 13:15:22;;;;;;;;;;;34.30;23.70;;;;;;4359469;32;19970;-39
2021/09/01 13:17:49;;;;;;;;;;;34.30;24.00;;;;;;4359378;32;19954;-38
2021/09/01 13:20:16;;;;;;;;;;;34.20;23.90;;;;;;4359523;32;19961;-39
2021/09/01 13:22:43;;;;;;;;;;;34.00;23.80;;;;;;4358830;32;19973;-39
2021/09/01 13:25:11;;;;;;;;;;;34.00;23.90;;;;;;4359086;32;20391;-39
2021/09/01 13:27:37;;;;;;;;;;;33.80;23.70;;;;;;4345442;32;19981;-39
2021/09/01 13:30:04;;;;;;;;;;;33.70;23.90;;;;;;4359010;32;19966;-40
2021/09/01 13:32:31;;;;;;;;;;;33.50;23.90;;;;;;4359050;32;19958;-38
2021/09/01 13:34:57;;;;;;;;;;;33.50;24.00;;;;;;4358802;32;19962;-47
2021/09/01 13:37:23;;;;;;;;;;;33.40;24.10;;;;;;4358456;32;19962;-40
2021/09/01 13:39:49;;;;;;;;;;;33.30;24.30;;;;;;4358678;32;19961;-40
2021/09/01 13:42:15;;;;;;;;;;;33.20;24.50;;;;;;4358732;32;20017;-39
2021/09/01 13:44:42;;;;;;;;;;;33.20;24.60;;;;;;4357161;32;20354;-41
2021/09/01 13:47:09;;;;;;;;;;;33.10;24.80;;;;;;4358600;32;19997;-39
2021/09/01 13:49:35;;;;;;;;;;;33.10;25.00;;;;;;4358946;32;19953;-39
2021/09/01 13:52:02;;;;;;;;;;;33.10;25.50;;;;;;4358887;32;19985;-39
2021/09/01 13:54:28;;;;;;;;;;;33.00;25.70;;;;;;4357244;32;20090;-39
2021/09/01 13:56:54;;;;;;;;;;;33.00;25.80;;;;;;4359056;32;19974;-41
2021/09/01 13:59:20;;;;;;;;;;;33.00;25.70;;;;;;4358706;32;20419;-39
2021/09/01 14:01:47;;;;;;;;;;;32.90;25.50;;;;;;4358538;32;19981;-40
2021/09/01 14:04:13;;;;;;;;;;;32.90;25.40;;;;;;4358448;32;20160;-40
2021/09/01 14:06:39;;;;;;;;;;;32.80;25.30;;;;;;4340539;33;20012;-40
2021/09/01 14:09:07;;;;;;;;;;;32.90;25.30;;;;;;4341079;33;20042;-39
2021/09/01 14:11:34;;;;;;;;;;;32.80;25.20;;;;;;4341176;33;20009;-40
2021/09/01 14:14:00;;;;;;;;;;;32.90;25.30;;;;;;4325704;33;20039;-40
2021/09/01 14:16:26;;;;;;;;;;;32.90;25.30;;;;;;4326361;33;19962;-40
2021/09/01 14:18:53;;;;;;;;;;;32.80;25.20;;;;;;4326094;33;19970;-40
2021/09/01 14:21:19;;;;;;;;;;;32.80;25.10;;;;;;4314254;33;20544;-40
2021/09/01 14:23:46;;;;;;;;;;;32.80;25.00;;;;;;4326152;33;19966;-40
2021/09/01 14:26:12;;;;;;;;;;;32.80;25.00;;;;;;4326132;33;20021;-40